SBI3062 UHBB-UUDD
Flight info
| Callsign | SBI3062 |
|---|---|
| Flight time | N/A |
| Altitude | 36000 |
| Route | RUNET M160 BADOM N620 UDRIL G229 GU R829 IDELI A946 LEBNA T541 TURMA G719 THN N742 UHT T791 KTL T187 ROMTA |
| Aircraft | A20N/M-SADFGIJ1RWYZ/LB1 |
Departure
| Time | 2026-04-24 22:46 |
|---|---|
| Airport | Ignatyevo Airport (UHBB) |
Arrival
| Time | N/A |
|---|---|
| Airport | Domodedovo International Airport (UUDD) |
| Time | Latitude | Longitude | Altitude | Speed | Heading |
|---|---|---|---|---|---|
| 2026-04-24 22:29 | 50.42331 | 127.40841 | 647 ft | 0 kts | 258° |
| 2026-04-24 22:35 | 50.42331 | 127.40842 | 647 ft | 1 kts | 258° |
| 2026-04-24 22:35 | 50.42335 | 127.40865 | 647 ft | 2 kts | 257° |
| 2026-04-24 22:35 | 50.42338 | 127.40888 | 647 ft | 2 kts | 258° |
| 2026-04-24 22:35 | 50.42341 | 127.40911 | 647 ft | 2 kts | 258° |
| 2026-04-24 22:36 | 50.42344 | 127.40934 | 647 ft | 2 kts | 258° |
| 2026-04-24 22:36 | 50.42347 | 127.40958 | 647 ft | 2 kts | 251° |
| 2026-04-24 22:36 | 50.42355 | 127.40977 | 647 ft | 2 kts | 219° |
| 2026-04-24 22:36 | 50.42369 | 127.40988 | 647 ft | 2 kts | 191° |
| 2026-04-24 22:37 | 50.42384 | 127.40988 | 647 ft | 2 kts | 163° |
| 2026-04-24 22:37 | 50.42386 | 127.40987 | 647 ft | 0 kts | 162° |
| 2026-04-24 22:37 | 50.42392 | 127.40984 | 647 ft | 2 kts | 166° |
| 2026-04-24 22:37 | 50.42406 | 127.40980 | 647 ft | 2 kts | 169° |
| 2026-04-24 22:38 | 50.42419 | 127.40976 | 647 ft | 0 kts | 168° |
| 2026-04-24 22:39 | 50.42418 | 127.40977 | 647 ft | 0 kts | 168° |
| 2026-04-24 22:40 | 50.42411 | 127.40980 | 647 ft | 2 kts | 165° |
| 2026-04-24 22:40 | 50.42390 | 127.40987 | 647 ft | 4 kts | 166° |
| 2026-04-24 22:40 | 50.42355 | 127.41001 | 647 ft | 5 kts | 167° |
| 2026-04-24 22:40 | 50.42306 | 127.41017 | 647 ft | 9 kts | 168° |
| 2026-04-24 22:41 | 50.42237 | 127.41052 | 647 ft | 10 kts | 134° |
| 2026-04-24 22:41 | 50.42220 | 127.41164 | 647 ft | 11 kts | 86° |
| 2026-04-24 22:41 | 50.42232 | 127.41290 | 647 ft | 12 kts | 79° |
| 2026-04-24 22:41 | 50.42248 | 127.41422 | 647 ft | 12 kts | 79° |
| 2026-04-24 22:42 | 50.42267 | 127.41560 | 647 ft | 13 kts | 77° |
| 2026-04-24 22:42 | 50.42263 | 127.41676 | 647 ft | 10 kts | 134° |
| 2026-04-24 22:42 | 50.42191 | 127.41714 | 647 ft | 12 kts | 169° |
| 2026-04-24 22:42 | 50.42098 | 127.41743 | 647 ft | 15 kts | 168° |
| 2026-04-24 22:43 | 50.41989 | 127.41777 | 647 ft | 17 kts | 169° |
| 2026-04-24 22:43 | 50.41864 | 127.41820 | 647 ft | 18 kts | 167° |
| 2026-04-24 22:43 | 50.41742 | 127.41863 | 647 ft | 17 kts | 170° |
| 2026-04-24 22:43 | 50.41620 | 127.41898 | 647 ft | 17 kts | 169° |
| 2026-04-24 22:44 | 50.41499 | 127.41936 | 647 ft | 17 kts | 169° |
| 2026-04-24 22:44 | 50.41447 | 127.41930 | 647 ft | 6 kts | 204° |
| 2026-04-24 22:44 | 50.41400 | 127.41910 | 647 ft | 7 kts | 181° |
| 2026-04-24 22:44 | 50.41369 | 127.41953 | 647 ft | 7 kts | 59° |
| 2026-04-24 22:45 | 50.41404 | 127.41966 | 647 ft | 0 kts | 346° |
| 2026-04-24 22:45 | 50.41432 | 127.41956 | 647 ft | 24 kts | 346° |
| 2026-04-24 22:45 | 50.41839 | 127.41824 | 647 ft | 92 kts | 348° |
| 2026-04-24 22:45 | 50.42657 | 127.41560 | 647 ft | 147 kts | 346° |
| 2026-04-24 22:46 | 50.43760 | 127.41189 | 810 ft | 175 kts | 345° |
| 2026-04-24 22:46 | 50.45007 | 127.40802 | 1289 ft | 185 kts | 345° |
| 2026-04-24 22:46 | 50.46251 | 127.40363 | 1997 ft | 184 kts | 342° |
| 2026-04-24 22:46 | 50.47524 | 127.39926 | 2468 ft | 195 kts | 344° |
| 2026-04-24 22:47 | 50.48916 | 127.39467 | 2787 ft | 215 kts | 343° |
| 2026-04-24 22:47 | 50.50476 | 127.39170 | 3170 ft | 238 kts | 359° |
| 2026-04-24 22:47 | 50.52174 | 127.39650 | 3659 ft | 255 kts | 10° |
| 2026-04-24 22:47 | 50.53900 | 127.40372 | 3966 ft | 257 kts | 11° |
| 2026-04-24 22:48 | 50.55611 | 127.41116 | 3998 ft | 258 kts | 13° |
| 2026-04-24 22:48 | 50.57348 | 127.41863 | 3987 ft | 259 kts | 12° |
| 2026-04-24 22:48 | 50.59072 | 127.42588 | 3999 ft | 258 kts | 12° |
| 2026-04-24 22:48 | 50.60836 | 127.43333 | 4277 ft | 268 kts | 12° |
| 2026-04-24 22:49 | 50.62631 | 127.44088 | 5203 ft | 265 kts | 11° |
| 2026-04-24 22:49 | 50.64398 | 127.44832 | 6098 ft | 265 kts | 11° |
| 2026-04-24 22:49 | 50.66159 | 127.45565 | 6889 ft | 267 kts | 10° |
| 2026-04-24 22:49 | 50.67944 | 127.46301 | 7616 ft | 270 kts | 11° |
| 2026-04-24 22:50 | 50.69756 | 127.47052 | 8346 ft | 272 kts | 11° |
| 2026-04-24 22:50 | 50.71599 | 127.47819 | 9080 ft | 275 kts | 12° |
| 2026-04-24 22:50 | 50.73449 | 127.48589 | 9809 ft | 277 kts | 12° |
| 2026-04-24 22:50 | 50.75308 | 127.49366 | 10336 ft | 284 kts | 12° |
| 2026-04-24 22:51 | 50.77288 | 127.50195 | 10640 ft | 300 kts | 12° |
| 2026-04-24 22:51 | 50.79332 | 127.51046 | 10930 ft | 315 kts | 12° |
| 2026-04-24 22:51 | 50.81508 | 127.51952 | 11221 ft | 330 kts | 13° |
| 2026-04-24 22:51 | 50.83782 | 127.52910 | 11615 ft | 341 kts | 13° |
| 2026-04-24 22:52 | 50.86051 | 127.53864 | 12250 ft | 343 kts | 13° |
| 2026-04-24 22:52 | 50.88349 | 127.54823 | 12877 ft | 344 kts | 12° |
| 2026-04-24 22:52 | 50.90758 | 127.55190 | 13435 ft | 348 kts | 356° |
| 2026-04-24 22:52 | 50.93139 | 127.54472 | 14050 ft | 351 kts | 345° |
| 2026-04-24 22:53 | 50.95473 | 127.53387 | 14622 ft | 354 kts | 343° |
| 2026-04-24 22:53 | 50.97851 | 127.52254 | 15126 ft | 359 kts | 344° |
| 2026-04-24 22:53 | 51.00239 | 127.51123 | 15593 ft | 364 kts | 344° |
| 2026-04-24 22:53 | 51.02673 | 127.49975 | 16048 ft | 369 kts | 345° |
| 2026-04-24 22:54 | 51.05156 | 127.48810 | 16510 ft | 374 kts | 345° |
| 2026-04-24 22:54 | 51.07686 | 127.47626 | 17020 ft | 378 kts | 346° |
| 2026-04-24 22:54 | 51.10198 | 127.46456 | 17479 ft | 383 kts | 345° |
| 2026-04-24 22:54 | 51.12781 | 127.45250 | 17939 ft | 387 kts | 347° |
| 2026-04-24 22:55 | 51.15322 | 127.44057 | 18652 ft | 383 kts | 346° |
| 2026-04-24 22:55 | 51.17882 | 127.42857 | 19182 ft | 386 kts | 346° |
| 2026-04-24 22:55 | 51.20473 | 127.41651 | 19555 ft | 392 kts | 347° |
| 2026-04-24 22:55 | 51.23096 | 127.40421 | 19974 ft | 396 kts | 347° |
| 2026-04-24 22:56 | 51.25761 | 127.39174 | 20449 ft | 399 kts | 347° |
| 2026-04-24 22:56 | 51.28259 | 127.37997 | 20832 ft | 402 kts | 347° |
| 2026-04-24 22:56 | 51.30935 | 127.36734 | 21206 ft | 406 kts | 348° |
| 2026-04-24 22:56 | 51.33674 | 127.35445 | 21656 ft | 411 kts | 348° |
| 2026-04-24 22:57 | 51.36422 | 127.34155 | 22115 ft | 413 kts | 349° |
| 2026-04-24 22:57 | 51.39190 | 127.32848 | 22509 ft | 416 kts | 349° |
| 2026-04-24 22:57 | 51.41959 | 127.31535 | 22858 ft | 421 kts | 348° |
| 2026-04-24 22:57 | 51.44782 | 127.30200 | 23241 ft | 425 kts | 349° |
| 2026-04-24 22:58 | 51.47624 | 127.28860 | 23652 ft | 428 kts | 349° |
| 2026-04-24 22:58 | 51.50458 | 127.27508 | 24015 ft | 430 kts | 349° |
| 2026-04-24 22:58 | 51.53372 | 127.26121 | 24367 ft | 434 kts | 349° |
| 2026-04-24 22:58 | 51.56256 | 127.24754 | 24716 ft | 438 kts | 349° |
| 2026-04-24 22:59 | 51.59180 | 127.23367 | 25080 ft | 440 kts | 349° |
| 2026-04-24 22:59 | 51.62149 | 127.21950 | 25453 ft | 443 kts | 349° |
| 2026-04-24 22:59 | 51.68044 | 127.19189 | 26131 ft | 447 kts | 352° |
| 2026-04-24 23:00 | 51.71079 | 127.18183 | 26473 ft | 444 kts | 357° |
| 2026-04-24 23:00 | 51.74171 | 127.17630 | 26830 ft | 442 kts | 2° |
| 2026-04-24 23:00 | 51.77215 | 127.17396 | 27207 ft | 441 kts | 4° |
| 2026-04-24 23:00 | 51.80289 | 127.17223 | 27475 ft | 444 kts | 4° |
| 2026-04-24 23:01 | 51.83402 | 127.17059 | 27739 ft | 447 kts | 4° |
| 2026-04-24 23:01 | 51.86520 | 127.16892 | 28006 ft | 449 kts | 4° |
| 2026-04-24 23:01 | 51.89611 | 127.16720 | 28277 ft | 451 kts | 2° |
| 2026-04-24 23:01 | 51.92740 | 127.16531 | 28556 ft | 453 kts | 4° |
| 2026-04-24 23:02 | 51.95922 | 127.16338 | 28735 ft | 457 kts | 4° |
| 2026-04-24 23:02 | 51.99126 | 127.16148 | 28991 ft | 459 kts | 5° |
| 2026-04-24 23:02 | 52.02290 | 127.15955 | 29321 ft | 457 kts | 4° |
| 2026-04-24 23:02 | 52.05473 | 127.15762 | 29602 ft | 456 kts | 4° |
| 2026-04-24 23:03 | 52.08599 | 127.15575 | 29886 ft | 455 kts | 4° |
| 2026-04-24 23:03 | 52.11753 | 127.15378 | 30205 ft | 456 kts | 4° |
| 2026-04-24 23:03 | 52.14965 | 127.15184 | 30356 ft | 457 kts | 4° |
| 2026-04-24 23:03 | 52.18116 | 127.14992 | 30618 ft | 457 kts | 4° |
| 2026-04-24 23:04 | 52.21279 | 127.14799 | 30884 ft | 456 kts | 4° |
| 2026-04-24 23:04 | 52.24444 | 127.14605 | 31098 ft | 456 kts | 4° |
| 2026-04-24 23:04 | 52.27623 | 127.14410 | 31282 ft | 455 kts | 3° |
| 2026-04-24 23:04 | 52.30790 | 127.14217 | 31500 ft | 454 kts | 3° |
| 2026-04-24 23:05 | 52.33901 | 127.14025 | 31848 ft | 454 kts | 3° |
| 2026-04-24 23:05 | 52.37092 | 127.13647 | 31975 ft | 457 kts | 357° |
| 2026-04-24 23:05 | 52.40211 | 127.12723 | 32140 ft | 461 kts | 351° |
| 2026-04-24 23:05 | 52.43305 | 127.11199 | 32342 ft | 465 kts | 343° |
| 2026-04-24 23:06 | 52.46251 | 127.09126 | 32406 ft | 467 kts | 336° |
| 2026-04-24 23:06 | 52.49097 | 127.06450 | 32610 ft | 468 kts | 329° |
| 2026-04-24 23:06 | 52.51722 | 127.03365 | 32751 ft | 467 kts | 325° |
| 2026-04-24 23:06 | 52.54288 | 127.00108 | 32936 ft | 464 kts | 324° |
| 2026-04-24 23:07 | 52.56809 | 126.96861 | 33187 ft | 461 kts | 324° |
| 2026-04-24 23:07 | 52.59329 | 126.93622 | 33338 ft | 459 kts | 324° |
| 2026-04-24 23:07 | 52.61841 | 126.90408 | 33521 ft | 456 kts | 324° |
| 2026-04-24 23:07 | 52.64333 | 126.87229 | 33762 ft | 454 kts | 324° |
| 2026-04-24 23:08 | 52.66838 | 126.84039 | 33873 ft | 453 kts | 324° |
| 2026-04-24 23:08 | 52.69304 | 126.80901 | 34009 ft | 452 kts | 324° |
| 2026-04-24 23:08 | 52.71783 | 126.77741 | 34244 ft | 450 kts | 324° |
| 2026-04-24 23:08 | 52.74249 | 126.74596 | 34465 ft | 449 kts | 324° |
| 2026-04-24 23:09 | 52.76735 | 126.71422 | 34650 ft | 448 kts | 324° |
| 2026-04-24 23:09 | 52.81654 | 126.65125 | 34886 ft | 447 kts | 324° |
| 2026-04-24 23:09 | 52.84096 | 126.61994 | 35115 ft | 447 kts | 324° |
| 2026-04-24 23:10 | 52.86538 | 126.58856 | 35182 ft | 447 kts | 324° |
| 2026-04-24 23:10 | 52.88996 | 126.55696 | 35349 ft | 447 kts | 324° |
| 2026-04-24 23:10 | 52.91452 | 126.52533 | 35477 ft | 447 kts | 324° |
| 2026-04-24 23:11 | 52.96349 | 126.46213 | 35616 ft | 447 kts | 323° |
| 2026-04-24 23:11 | 52.98812 | 126.43024 | 35767 ft | 448 kts | 323° |
| 2026-04-24 23:11 | 53.01284 | 126.39820 | 35756 ft | 449 kts | 324° |
| 2026-04-24 23:12 | 53.06165 | 126.33482 | 35714 ft | 450 kts | 323° |
| 2026-04-24 23:12 | 53.11109 | 126.27042 | 35782 ft | 449 kts | 323° |
| 2026-04-24 23:13 | 53.16029 | 126.20612 | 35724 ft | 450 kts | 323° |
| 2026-04-24 23:13 | 53.20922 | 126.14199 | 35764 ft | 449 kts | 323° |
| 2026-04-24 23:14 | 53.25811 | 126.07774 | 35769 ft | 448 kts | 323° |
| 2026-04-24 23:14 | 53.30682 | 126.01351 | 35742 ft | 449 kts | 323° |
| 2026-04-24 23:15 | 53.35571 | 125.94885 | 35762 ft | 450 kts | 323° |
| 2026-04-24 23:15 | 53.40466 | 125.88407 | 35748 ft | 448 kts | 324° |
| 2026-04-24 23:16 | 53.45612 | 125.82556 | 35755 ft | 447 kts | 331° |
| 2026-04-24 23:16 | 53.51146 | 125.77808 | 35800 ft | 446 kts | 339° |
| 2026-04-24 23:17 | 53.56958 | 125.74230 | 35755 ft | 446 kts | 344° |
| 2026-04-24 23:17 | 53.62884 | 125.71098 | 35788 ft | 446 kts | 345° |
| 2026-04-24 23:18 | 53.68752 | 125.67986 | 35790 ft | 445 kts | 345° |
| 2026-04-24 23:18 | 53.74645 | 125.64824 | 35800 ft | 445 kts | 345° |
| 2026-04-24 23:19 | 53.80540 | 125.61646 | 35773 ft | 445 kts | 345° |
| 2026-04-24 23:19 | 53.86448 | 125.58443 | 35777 ft | 446 kts | 345° |
| 2026-04-24 23:20 | 53.92351 | 125.55231 | 35793 ft | 447 kts | 345° |
| 2026-04-24 23:20 | 53.98240 | 125.52019 | 35807 ft | 446 kts | 345° |
| 2026-04-24 23:21 | 54.04135 | 125.48795 | 35801 ft | 448 kts | 345° |
| 2026-04-24 23:21 | 54.10075 | 125.45534 | 35813 ft | 447 kts | 345° |
| 2026-04-24 23:22 | 54.15992 | 125.42271 | 35829 ft | 449 kts | 345° |
| 2026-04-24 23:22 | 54.21937 | 125.38989 | 35800 ft | 449 kts | 345° |
| 2026-04-24 23:23 | 54.27855 | 125.35711 | 35777 ft | 449 kts | 345° |
| 2026-04-24 23:23 | 54.33786 | 125.32417 | 35758 ft | 449 kts | 344° |
| 2026-04-24 23:24 | 54.39693 | 125.29125 | 35782 ft | 449 kts | 344° |
| 2026-04-24 23:24 | 54.45645 | 125.25794 | 35763 ft | 449 kts | 344° |
| 2026-04-24 23:25 | 54.51578 | 125.22467 | 35809 ft | 449 kts | 344° |
| 2026-04-24 23:25 | 54.57558 | 125.19103 | 35766 ft | 451 kts | 344° |
| 2026-04-24 23:26 | 54.63463 | 125.15772 | 35765 ft | 451 kts | 344° |
| 2026-04-24 23:26 | 54.69427 | 125.12395 | 35836 ft | 451 kts | 344° |
| 2026-04-24 23:27 | 54.75355 | 125.09029 | 35832 ft | 451 kts | 344° |
| 2026-04-24 23:27 | 54.81295 | 125.05647 | 35804 ft | 450 kts | 344° |
| 2026-04-24 23:28 | 54.87256 | 125.02239 | 35832 ft | 451 kts | 344° |
| 2026-04-24 23:28 | 54.93185 | 124.98842 | 35869 ft | 451 kts | 344° |
| 2026-04-24 23:29 | 54.99146 | 124.95414 | 35834 ft | 451 kts | 344° |
| 2026-04-24 23:29 | 55.05069 | 124.91996 | 35833 ft | 451 kts | 344° |
| 2026-04-24 23:30 | 55.11000 | 124.88561 | 35874 ft | 452 kts | 344° |
| 2026-04-24 23:30 | 55.17009 | 124.85073 | 35823 ft | 453 kts | 344° |
| 2026-04-24 23:31 | 55.22919 | 124.81407 | 35867 ft | 454 kts | 340° |
| 2026-04-24 23:31 | 55.28599 | 124.76501 | 35856 ft | 456 kts | 332° |
| 2026-04-24 23:32 | 55.33859 | 124.70281 | 35875 ft | 458 kts | 323° |
| 2026-04-24 23:32 | 55.38730 | 124.63133 | 35896 ft | 459 kts | 321° |
| 2026-04-24 23:33 | 55.43547 | 124.55861 | 35825 ft | 458 kts | 321° |
| 2026-04-24 23:33 | 55.48396 | 124.48558 | 35865 ft | 458 kts | 321° |
| 2026-04-24 23:34 | 55.53210 | 124.41309 | 35864 ft | 459 kts | 321° |
| 2026-04-24 23:34 | 55.58070 | 124.33974 | 35871 ft | 460 kts | 320° |
| 2026-04-24 23:35 | 55.62906 | 124.26640 | 35805 ft | 459 kts | 320° |
| 2026-04-24 23:35 | 55.67738 | 124.19295 | 35801 ft | 459 kts | 320° |
| 2026-04-24 23:36 | 55.72566 | 124.11932 | 35836 ft | 458 kts | 321° |
| 2026-04-24 23:36 | 55.77373 | 124.04575 | 35845 ft | 459 kts | 320° |
| 2026-04-24 23:37 | 55.82185 | 123.97187 | 35860 ft | 461 kts | 320° |
| 2026-04-24 23:37 | 55.89422 | 123.86019 | 35874 ft | 460 kts | 320° |
| 2026-04-24 23:38 | 55.94246 | 123.78543 | 35838 ft | 460 kts | 320° |
| 2026-04-24 23:38 | 55.99061 | 123.71056 | 35862 ft | 460 kts | 321° |
| 2026-04-24 23:39 | 56.03851 | 123.63586 | 35888 ft | 460 kts | 320° |
| 2026-04-24 23:39 | 56.08669 | 123.56042 | 35858 ft | 459 kts | 320° |
| 2026-04-24 23:40 | 56.13443 | 123.48541 | 35883 ft | 459 kts | 320° |
| 2026-04-24 23:40 | 56.18253 | 123.40960 | 35908 ft | 460 kts | 320° |
| 2026-04-24 23:41 | 56.23022 | 123.33416 | 35862 ft | 459 kts | 319° |
| 2026-04-24 23:41 | 56.27797 | 123.25833 | 35849 ft | 459 kts | 319° |
| 2026-04-24 23:42 | 56.32555 | 123.18253 | 35849 ft | 458 kts | 319° |
| 2026-04-24 23:42 | 56.37315 | 123.10647 | 35840 ft | 458 kts | 319° |
| 2026-04-24 23:43 | 56.42058 | 123.03034 | 35847 ft | 458 kts | 319° |
| 2026-04-24 23:43 | 56.46811 | 122.95386 | 35852 ft | 457 kts | 319° |
| 2026-04-24 23:44 | 56.51540 | 122.87743 | 35868 ft | 457 kts | 319° |
| 2026-04-24 23:44 | 56.56260 | 122.80092 | 35848 ft | 458 kts | 319° |
| 2026-04-24 23:45 | 56.61000 | 122.72398 | 35854 ft | 458 kts | 319° |
| 2026-04-24 23:45 | 56.65733 | 122.64688 | 35843 ft | 457 kts | 319° |
| 2026-04-24 23:46 | 56.70462 | 122.56954 | 35872 ft | 457 kts | 319° |
| 2026-04-24 23:46 | 56.75158 | 122.49239 | 35864 ft | 457 kts | 319° |
| 2026-04-24 23:47 | 56.79851 | 122.41502 | 35856 ft | 456 kts | 319° |
| 2026-04-24 23:47 | 56.84561 | 122.33717 | 35868 ft | 457 kts | 318° |
| 2026-04-24 23:48 | 56.89252 | 122.25942 | 35872 ft | 457 kts | 318° |
| 2026-04-24 23:48 | 56.93938 | 122.18144 | 35880 ft | 456 kts | 318° |
| 2026-04-24 23:49 | 56.98606 | 122.10346 | 35895 ft | 456 kts | 318° |
| 2026-04-24 23:49 | 57.03267 | 122.02528 | 35899 ft | 456 kts | 318° |
| 2026-04-24 23:50 | 57.07917 | 121.94701 | 35917 ft | 455 kts | 318° |
| 2026-04-24 23:50 | 57.12576 | 121.86832 | 35919 ft | 456 kts | 318° |
| 2026-04-24 23:51 | 57.17238 | 121.78933 | 35903 ft | 455 kts | 318° |
| 2026-04-24 23:51 | 57.21881 | 121.71032 | 35902 ft | 454 kts | 318° |
| 2026-04-24 23:52 | 57.26498 | 121.63149 | 35884 ft | 455 kts | 318° |
| 2026-04-24 23:52 | 57.31150 | 121.55203 | 35904 ft | 455 kts | 318° |
| 2026-04-24 23:53 | 57.35781 | 121.47262 | 35882 ft | 455 kts | 318° |
| 2026-04-24 23:53 | 57.40403 | 121.39307 | 35891 ft | 455 kts | 318° |
| 2026-04-24 23:54 | 57.44999 | 121.31366 | 35871 ft | 455 kts | 317° |
| 2026-04-24 23:54 | 57.49615 | 121.23364 | 35881 ft | 455 kts | 317° |
| 2026-04-24 23:55 | 57.54237 | 121.15316 | 35850 ft | 455 kts | 317° |
| 2026-04-24 23:55 | 57.58825 | 121.07297 | 35835 ft | 454 kts | 317° |
| 2026-04-24 23:56 | 57.63407 | 120.99264 | 35860 ft | 454 kts | 317° |
| 2026-04-24 23:56 | 57.67991 | 120.91200 | 35903 ft | 454 kts | 317° |
| 2026-04-24 23:57 | 57.72573 | 120.83109 | 35890 ft | 453 kts | 317° |
| 2026-04-24 23:57 | 57.77136 | 120.75015 | 35887 ft | 453 kts | 317° |
| 2026-04-24 23:58 | 57.81702 | 120.66892 | 35924 ft | 453 kts | 317° |
| 2026-04-24 23:58 | 57.86253 | 120.58764 | 35916 ft | 453 kts | 317° |
| 2026-04-24 23:59 | 57.90810 | 120.50598 | 35955 ft | 453 kts | 317° |
| 2026-04-24 23:59 | 57.95343 | 120.42445 | 35929 ft | 452 kts | 317° |